Time;durP1;ratioP1;P1;durP2;ratioP2;P2;SDS_P1;SDS_P2;PMS_P1;PMS_P2;Temp;Humidity;BMP_temperature;BMP_pressure;BME280_temperature;BME280_humidity;BME280_pressure;Samples;Min_cycle;Max_cycle;Signal;HPM_P1;HPM_P2
2021/10/29 00:01:09;;;;;;;4.88;4.25;;;5.90;99.90;;;;;;6260613;28;20028;-84
2021/10/29 00:04:09;;;;;;;5.87;4.90;;;6.20;99.90;;;;;;6276693;28;20020;-83
2021/10/29 00:07:10;;;;;;;6.45;4.10;;;6.00;99.90;;;;;;6283160;28;20309;-81
2021/10/29 00:10:11;;;;;;;6.13;4.53;;;6.20;99.90;;;;;;6291668;28;20025;-82
2021/10/29 00:13:12;;;;;;;5.32;4.10;;;5.80;99.90;;;;;;6276489;28;20086;-81
2021/10/29 00:16:12;;;;;;;5.97;3.70;;;5.70;99.90;;;;;;6258629;28;20139;-81
2021/10/29 00:19:13;;;;;;;6.55;3.92;;;5.80;99.90;;;;;;6292909;28;20105;-81
2021/10/29 00:22:14;;;;;;;5.40;3.90;;;;;;;;;;6308791;28;20081;-81
2021/10/29 00:25:15;;;;;;;6.05;4.22;;;;;;;;;;6294552;28;20032;-81
2021/10/29 00:28:15;;;;;;;6.55;4.43;;;6.00;99.90;;;;;;6292195;28;20118;-85
2021/10/29 00:31:16;;;;;;;5.85;4.18;;;;;;;;;;6297790;28;20036;-81
2021/10/29 00:34:17;;;;;;;5.25;4.32;;;;;;;;;;6317296;28;20462;-81
2021/10/29 00:37:18;;;;;;;5.10;4.25;;;;;;;;;;6316794;28;20033;-81
2021/10/29 00:40:19;;;;;;;5.47;4.00;;;5.90;99.90;;;;;;6279687;28;20024;-81
2021/10/29 00:43:20;;;;;;;6.10;4.28;;;5.90;99.90;;;;;;6275636;28;20028;-81
2021/10/29 00:46:21;;;;;;;7.93;4.28;;;5.70;99.90;;;;;;6259366;28;20036;-83
2021/10/29 00:49:22;;;;;;;11.35;4.15;;;;;;;;;;6292130;28;20073;-83
2021/10/29 00:52:23;;;;;;;6.07;4.15;;;;;;;;;;6291529;28;20684;-81
2021/10/29 00:55:24;;;;;;;5.70;3.92;;;6.10;99.90;;;;;;6293818;28;20109;-81
2021/10/29 00:58:26;;;;;;;5.35;4.03;;;5.80;99.90;;;;;;6274929;28;20043;-81
2021/10/29 01:01:27;;;;;;;6.97;4.13;;;;;;;;;;6270306;28;20506;-81
2021/10/29 01:04:28;;;;;;;4.03;3.40;;;;;;;;;;6274997;28;20035;-83
2021/10/29 01:07:28;;;;;;;5.35;4.15;;;6.10;99.90;;;;;;6275826;28;20108;-83
2021/10/29 01:10:30;;;;;;;6.35;3.97;;;6.00;99.90;;;;;;6275101;28;20516;-84
2021/10/29 01:13:33;;;;;;;5.00;4.10;;;6.10;99.90;;;;;;6258492;28;20028;-81
2021/10/29 01:16:34;;;;;;;8.23;4.45;;;6.20;99.90;;;;;;6303112;28;20517;-81
2021/10/29 01:19:34;;;;;;;6.45;4.22;;;5.80;99.90;;;;;;6255058;28;20037;-81
2021/10/29 01:22:35;;;;;;;5.60;3.67;;;;;;;;;;6275106;28;20020;-82
2021/10/29 01:25:36;;;;;;;6.97;3.97;;;5.80;99.90;;;;;;6291067;28;20557;-81
2021/10/29 01:28:37;;;;;;;5.53;4.13;;;5.90;99.90;;;;;;6290799;28;20021;-81
2021/10/29 01:31:37;;;;;;;4.97;3.83;;;5.80;99.90;;;;;;6291513;28;20063;-82
2021/10/29 01:34:39;;;;;;;5.15;3.72;;;5.90;99.90;;;;;;6305575;28;20183;-81
2021/10/29 01:37:40;;;;;;;6.90;4.07;;;6.10;99.90;;;;;;6272285;28;20374;-83
2021/10/29 01:40:40;;;;;;;5.50;4.00;;;6.00;99.90;;;;;;6274895;28;20033;-82
2021/10/29 01:43:41;;;;;;;6.03;4.82;;;;;;;;;;6264521;28;20043;-81
2021/10/29 01:46:42;;;;;;;6.63;5.32;;;;;;;;;;6286121;28;20114;-81
2021/10/29 01:49:43;;;;;;;5.82;4.28;;;6.00;99.90;;;;;;6317231;28;20028;-81
2021/10/29 01:52:44;;;;;;;4.35;3.80;;;5.90;99.90;;;;;;6298702;28;20377;-81
2021/10/29 01:55:44;;;;;;;6.72;3.65;;;5.90;99.90;;;;;;6274413;28;20095;-81
2021/10/29 01:58:46;;;;;;;4.38;3.60;;;5.80;99.90;;;;;;6315439;28;20032;-82
2021/10/29 02:01:46;;;;;;;6.03;3.70;;;5.70;99.90;;;;;;6279691;28;20028;-81
2021/10/29 02:04:47;;;;;;;4.63;3.63;;;5.90;99.90;;;;;;6274504;28;20039;-85
2021/10/29 02:07:47;;;;;;;6.30;4.22;;;6.00;99.90;;;;;;6273877;28;20029;-82
2021/10/29 02:10:48;;;;;;;5.07;3.70;;;5.80;99.90;;;;;;6291108;28;20445;-81
2021/10/29 02:13:49;;;;;;;4.38;3.75;;;5.90;99.90;;;;;;6281782;28;20078;-81
2021/10/29 02:16:49;;;;;;;4.88;3.78;;;6.00;99.90;;;;;;6274200;28;20047;-84
2021/10/29 02:19:50;;;;;;;4.93;3.40;;;;;;;;;;6308189;28;20462;-81
2021/10/29 02:22:51;;;;;;;4.05;3.20;;;5.50;99.90;;;;;;6315724;28;20024;-81
2021/10/29 02:25:52;;;;;;;4.57;3.50;;;;;;;;;;6281626;28;20051;-81
2021/10/29 02:28:53;;;;;;;6.40;3.63;;;5.60;99.90;;;;;;6315917;28;20024;-81
2021/10/29 02:31:53;;;;;;;4.35;3.45;;;5.60;99.90;;;;;;6298078;28;20115;-85
2021/10/29 02:34:54;;;;;;;8.05;3.75;;;5.70;99.90;;;;;;6293748;28;20528;-81
2021/10/29 02:37:54;;;;;;;4.25;3.85;;;5.60;99.90;;;;;;6292310;28;20502;-83
2021/10/29 02:40:55;;;;;;;4.50;3.80;;;;;;;;;;6277965;28;20580;-81
2021/10/29 02:43:56;;;;;;;4.65;3.65;;;;;;;;;;6278431;28;20031;-81
2021/10/29 02:46:57;;;;;;;3.80;3.40;;;;;;;;;;6294803;28;20105;-81
2021/10/29 02:49:58;;;;;;;4.85;3.50;;;5.70;99.90;;;;;;6280723;28;20044;-81
2021/10/29 02:52:59;;;;;;;6.25;4.00;;;5.80;99.90;;;;;;6262464;28;20082;-82
2021/10/29 02:56:00;;;;;;;6.53;3.88;;;;;;;;;;6294563;28;20070;-81
2021/10/29 02:59:00;;;;;;;7.15;4.10;;;5.80;99.90;;;;;;6295347;28;20447;-81
2021/10/29 03:02:01;;;;;;;6.43;3.90;;;;;;;;;;6261718;28;20032;-84
2021/10/29 03:05:03;;;;;;;7.93;4.43;;;5.60;99.90;;;;;;6295149;28;20027;-81
2021/10/29 03:08:04;;;;;;;6.30;4.22;;;5.50;99.90;;;;;;6277713;28;20123;-84
2021/10/29 03:11:05;;;;;;;4.18;3.72;;;;;;;;;;6277580;28;20039;-81
2021/10/29 03:14:06;;;;;;;5.70;3.85;;;;;;;;;;6285223;28;20488;-81
2021/10/29 03:17:06;;;;;;;4.97;3.40;;;5.40;99.90;;;;;;6292249;28;20032;-81
2021/10/29 03:20:08;;;;;;;4.20;3.38;;;5.30;99.90;;;;;;6277059;28;20039;-82
2021/10/29 03:23:08;;;;;;;5.18;3.80;;;5.30;99.90;;;;;;6277968;28;20082;-82
2021/10/29 03:26:10;;;;;;;6.03;3.72;;;;;;;;;;6260819;28;20428;-81
2021/10/29 03:29:11;;;;;;;10.85;3.75;;;;;;;;;;6291512;28;20565;-80
2021/10/29 03:32:12;;;;;;;4.72;3.80;;;;;;;;;;6277912;28;20060;-84
2021/10/29 03:35:12;;;;;;;4.80;3.45;;;5.30;99.90;;;;;;6294395;28;20029;-84
2021/10/29 03:41:36;;;;;;;5.80;4.03;;;;;;;;;;6285952;28;20032;-81
2021/10/29 03:47:53;;;;;;;6.57;4.15;;;;;;;;;;6316397;28;20513;-80
2021/10/29 03:51:12;;;;;;;3.40;3.10;;;;;;;;;;6302059;28;20028;-84
2021/10/29 03:54:20;;;;;;;6.05;3.65;;;5.90;99.90;;;;;;6302194;28;20444;-85
2021/10/29 03:57:25;;;;;;;6.38;3.85;;;;;;;;;;6293501;28;20056;-81
2021/10/29 04:00:29;;;;;;;5.43;3.20;;;;;;;;;;6293682;28;20366;-81
2021/10/29 04:03:29;;;;;;;3.05;2.75;;;5.90;99.90;;;;;;6277095;28;20127;-84
2021/10/29 04:06:30;;;;;;;5.18;3.38;;;;;;;;;;6293076;28;20033;-82
2021/10/29 04:09:31;;;;;;;4.82;3.80;;;;;;;;;;6293219;28;20071;-81
2021/10/29 04:12:32;;;;;;;6.03;4.30;;;;;;;;;;6286929;28;20029;-84
2021/10/29 04:15:33;;;;;;;5.82;4.60;;;;;;;;;;6275892;28;20029;-82
2021/10/29 04:18:34;;;;;;;5.10;3.80;;;5.30;99.90;;;;;;6290622;28;20138;-80
2021/10/29 04:21:38;;;;;;;7.22;5.63;;;5.10;99.90;;;;;;6276013;28;20060;-81
2021/10/29 04:24:38;;;;;;;12.18;7.65;;;4.90;99.90;;;;;;6276385;28;20050;-80
2021/10/29 04:27:45;;;;;;;15.85;12.27;;;;;;;;;;6259795;28;20029;-80
2021/10/29 04:30:46;;;;;;;7.35;5.57;;;;;;;;;;6276645;28;20085;-80
2021/10/29 04:33:47;;;;;;;32.38;19.23;;;;;;;;;;6293309;28;20403;-81
2021/10/29 04:36:48;;;;;;;8.10;6.13;;;5.30;99.90;;;;;;6292634;28;20029;-81
2021/10/29 04:39:50;;;;;;;5.30;4.70;;;5.50;99.90;;;;;;6275912;28;20082;-84
2021/10/29 04:42:50;;;;;;;5.35;3.88;;;5.70;99.90;;;;;;6283054;28;20051;-81
2021/10/29 04:45:51;;;;;;;5.18;3.40;;;5.60;99.90;;;;;;6300636;28;20030;-80
2021/10/29 04:48:52;;;;;;;6.85;3.80;;;;;;;;;;6316967;28;20059;-82
2021/10/29 04:51:53;;;;;;;6.50;3.60;;;;;;;;;;6318295;28;20055;-80
2021/10/29 04:54:54;;;;;;;6.95;4.75;;;5.60;99.90;;;;;;6318056;28;20044;-80
2021/10/29 04:57:55;;;;;;;7.32;3.75;;;;;;;;;;6282854;28;20075;-83
2021/10/29 05:00:56;;;;;;;6.03;4.03;;;;;;;;;;6317960;28;20347;-82
2021/10/29 05:03:57;;;;;;;6.80;4.10;;;;;;;;;;6299638;28;20020;-82
2021/10/29 05:06:58;;;;;;;4.50;3.85;;;;;;;;;;6316733;28;20024;-83
2021/10/29 05:09:59;;;;;;;4.85;3.80;;;;;;;;;;6300081;28;20024;-84
2021/10/29 05:13:00;;;;;;;6.07;3.95;;;;;;;;;;6298089;28;20450;-83
2021/10/29 05:16:01;;;;;;;5.13;3.88;;;5.60;99.90;;;;;;6297980;28;20028;-82
2021/10/29 05:19:02;;;;;;;4.80;3.40;;;;;;;;;;6269586;28;20036;-83
2021/10/29 05:22:03;;;;;;;5.32;4.10;;;;;;;;;;6290106;28;20470;-84
2021/10/29 05:25:04;;;;;;;5.05;3.95;;;;;;;;;;6293425;28;20032;-84
2021/10/29 05:28:05;;;;;;;10.48;5.97;;;5.30;99.90;;;;;;6310053;28;20374;-84
2021/10/29 05:31:05;;;;;;;5.65;4.20;;;5.40;99.90;;;;;;6268835;28;20028;-81
2021/10/29 05:34:06;;;;;;;11.70;4.80;;;;;;;;;;6278881;28;20401;-82
2021/10/29 05:37:07;;;;;;;7.45;3.58;;;5.70;99.90;;;;;;6284840;28;20146;-80
2021/10/29 05:40:08;;;;;;;5.88;4.10;;;5.80;99.90;;;;;;6316653;28;20024;-83
2021/10/29 05:43:09;;;;;;;5.20;4.32;;;5.40;99.90;;;;;;6274998;28;20020;-83
2021/10/29 05:46:10;;;;;;;6.38;4.10;;;;;;;;;;6260413;28;20035;-83
2021/10/29 05:49:13;;;;;;;7.68;3.92;;;;;;;;;;6298355;28;20023;-89
2021/10/29 05:52:21;;;;;;;5.22;4.18;;;5.20;99.90;;;;;;6275017;28;20021;-86
2021/10/29 05:55:22;;;;;;;7.43;5.30;;;5.30;99.90;;;;;;6263328;28;20059;-84
2021/10/29 05:58:23;;;;;;;7.15;4.18;;;;;;;;;;6298689;28;20068;-83
2021/10/29 06:01:31;;;;;;;6.60;4.22;;;5.20;99.90;;;;;;6299149;28;20101;-86
2021/10/29 06:04:31;;;;;;;6.35;4.00;;;4.90;99.90;;;;;;6298473;28;20472;-84
2021/10/29 06:07:32;;;;;;;5.95;4.53;;;;;;;;;;6291125;28;20123;-85
2021/10/29 06:10:33;;;;;;;8.00;3.95;;;4.80;99.90;;;;;;6291705;28;20017;-84
2021/10/29 06:13:34;;;;;;;4.93;4.05;;;;;;;;;;6276165;28;20552;-84
2021/10/29 06:16:35;;;;;;;12.25;7.15;;;;;;;;;;6286582;28;20032;-85
2021/10/29 06:19:36;;;;;;;7.57;6.47;;;;;;;;;;6294629;28;20478;-84
2021/10/29 06:22:40;;;;;;;11.30;9.75;;;;;;;;;;6274343;28;20024;-83
2021/10/29 06:25:42;;;;;;;6.97;5.80;;;;;;;;;;6272292;28;20047;-84
2021/10/29 06:28:46;;;;;;;6.75;4.63;;;4.60;99.90;;;;;;6282044;28;20024;-85
2021/10/29 06:31:47;;;;;;;6.72;4.93;;;4.80;99.90;;;;;;6262683;28;20032;-84
2021/10/29 06:34:48;;;;;;;5.80;4.22;;;4.90;99.90;;;;;;6279009;28;20801;-83
2021/10/29 06:37:48;;;;;;;4.68;4.10;;;5.00;99.90;;;;;;6261985;28;20047;-84
2021/10/29 06:40:50;;;;;;;6.72;4.57;;;;;;;;;;6278212;28;20070;-84
2021/10/29 07:42:58;;;;;;;5.82;4.20;;;7.60;99.90;;;;;;6304196;28;20111;-84
2021/10/29 07:45:56;;;;;;;7.95;4.70;;;7.60;99.90;;;;;;6303806;28;20043;-84
2021/10/29 07:48:56;;;;;;;7.47;4.60;;;7.80;99.90;;;;;;6289366;28;20029;-83
2021/10/29 07:51:58;;;;;;;9.93;6.30;;;8.40;99.90;;;;;;6298200;28;20035;-84
2021/10/29 07:54:58;;;;;;;8.77;6.30;;;8.20;99.90;;;;;;6301368;28;20052;-86
2021/10/29 07:58:02;;;;;;;8.00;4.38;;;8.90;99.90;;;;;;6283201;28;20067;-84
2021/10/29 08:01:03;;;;;;;7.78;4.57;;;8.80;99.90;;;;;;6301595;28;20640;-84
2021/10/29 08:04:04;;;;;;;5.95;4.10;;;9.50;99.90;;;;;;6282936;28;20101;-85
2021/10/29 08:07:04;;;;;;;4.47;3.50;;;9.70;99.90;;;;;;6260334;28;20032;-84
2021/10/29 08:10:07;;;;;;;7.90;4.38;;;10.50;99.90;;;;;;6272800;28;20035;-84
2021/10/29 08:13:08;;;;;;;13.30;9.75;;;;;;;;;;6260367;28;20028;-85
2021/10/29 08:16:09;;;;;;;9.07;6.03;;;;;;;;;;6299968;28;20024;-84
2021/10/29 08:19:10;;;;;;;12.02;7.25;;;12.00;99.90;;;;;;6317987;28;20481;-82
2021/10/29 08:22:11;;;;;;;20.50;11.82;;;;;;;;;;6269423;28;20031;-84
2021/10/29 08:25:11;;;;;;;52.47;31.90;;;12.50;99.90;;;;;;6291278;28;20089;-82
2021/10/29 08:28:13;;;;;;;17.88;10.57;;;;;;;;;;6290618;28;20025;-83
2021/10/29 08:31:13;;;;;;;14.98;9.68;;;13.30;99.90;;;;;;6284244;28;20024;-85
2021/10/29 08:34:15;;;;;;;6.82;5.05;;;14.40;99.90;;;;;;6283628;28;20039;-84
2021/10/29 08:37:16;;;;;;;6.33;3.87;;;;;;;;;;6283294;28;20042;-84
2021/10/29 08:40:17;;;;;;;24.20;13.75;;;15.00;99.90;;;;;;6300397;28;20038;-87
2021/10/29 08:43:18;;;;;;;5.78;4.88;;;;;;;;;;6262523;28;20033;-84
2021/10/29 08:46:19;;;;;;;5.38;4.60;;;;;;;;;;6305836;28;20514;-85
2021/10/29 08:49:20;;;;;;;9.43;8.43;;;15.40;99.90;;;;;;6277844;28;20024;-86
2021/10/29 08:52:22;;;;;;;8.45;7.65;;;15.00;99.90;;;;;;6272684;28;20039;-85
2021/10/29 08:55:27;;;;;;;10.77;9.77;;;;;;;;;;6274235;28;20052;-85
2021/10/29 08:58:30;;;;;;;6.13;4.03;;;14.40;99.90;;;;;;6267010;28;20047;-84
2021/10/29 09:01:52;;;;;;;4.72;3.58;;;14.30;99.90;;;;;;6275526;28;20028;-85
2021/10/29 09:05:05;;;;;;;5.47;4.22;;;14.70;99.90;;;;;;6274966;28;20024;-86
2021/10/29 09:08:12;;;;;;;5.30;3.17;;;14.70;99.90;;;;;;6280727;28;20032;-85
2021/10/29 09:31:26;;;;;;;5.38;4.00;;;18.90;92.80;;;;;;6288423;28;20021;-85
2021/10/29 09:34:26;;;;;;;3.97;3.17;;;20.00;89.80;;;;;;6307420;28;20115;-86
2021/10/29 09:37:37;;;;;;;4.93;3.22;;;20.40;82.40;;;;;;6258721;28;20465;-86
2021/10/29 09:40:40;;;;;;;5.57;3.40;;;21.00;78.80;;;;;;6271949;28;20081;-86
2021/10/29 09:43:41;;;;;;;4.72;3.42;;;21.30;87.80;;;;;;6262046;28;20024;-88
2021/10/29 09:46:56;;;;;;;5.28;3.88;;;21.40;75.80;;;;;;6271316;28;20032;-85
2021/10/29 09:50:07;;;;;;;3.67;3.08;;;21.20;75.70;;;;;;6267839;28;20086;-88
2021/10/29 09:53:22;;;;;;;5.00;3.80;;;21.00;76.10;;;;;;6270057;28;20036;-88
2021/10/29 09:59:30;;;;;;;5.30;4.00;;;19.70;79.20;;;;;;6274584;28;20032;-87
2021/10/29 10:02:30;;;;;;;4.70;3.47;;;19.30;82.90;;;;;;6271421;28;20097;-85
2021/10/29 10:05:31;;;;;;;3.97;3.40;;;19.40;81.30;;;;;;6265453;28;20028;-90
2021/10/29 10:08:32;;;;;;;4.75;3.25;;;19.30;81.80;;;;;;6263332;28;20032;-90
2021/10/29 10:11:34;;;;;;;4.55;3.00;;;19.80;78.90;;;;;;6276100;28;20363;-87
2021/10/29 10:14:34;;;;;;;4.57;3.17;;;20.20;76.30;;;;;;6269298;28;20123;-88
2021/10/29 10:17:35;;;;;;;8.20;3.30;;;20.30;75.30;;;;;;6275827;28;20055;-89
2021/10/29 10:20:36;;;;;;;5.25;3.17;;;20.60;75.20;;;;;;6263211;28;20036;-87
2021/10/29 10:23:39;;;;;;;6.18;3.20;;;20.40;71.60;;;;;;6264984;28;20463;-88
2021/10/29 10:46:20;;;;;;;4.68;3.08;;;21.20;74.50;;;;;;6310900;28;20068;-87
2021/10/29 10:49:22;;;;;;;4.72;3.60;;;21.60;91.70;;;;;;6272013;28;20347;-87
2021/10/29 10:52:30;;;;;;;;;;;21.50;77.70;;;;;;6282366;28;20478;-87
2021/10/29 10:55:57;;;;;;;4.68;3.63;;;21.70;91.00;;;;;;6284003;28;19920;-88
2021/10/29 10:59:32;;;;;;;4.07;3.50;;;21.70;74.20;;;;;;6294113;28;20041;-90
2021/10/29 11:12:54;;;;;;;3.97;3.42;;;21.40;73.20;;;;;;6227073;28;20946;-87
2021/10/29 11:16:00;;;;;;;3.75;3.35;;;21.60;90.50;;;;;;6247001;28;20549;-90
2021/10/29 11:19:10;;;;;;;4.28;3.40;;;21.20;73.80;;;;;;6248112;28;20045;-87
2021/10/29 11:22:13;;;;;;;5.88;3.80;;;21.60;73.40;;;;;;6260198;28;20032;-86
2021/10/29 11:25:14;;;;;;;4.15;3.17;;;21.60;72.10;;;;;;6246503;28;20033;-87
2021/10/29 11:28:16;;;;;;;3.85;3.13;;;21.50;71.40;;;;;;6236158;28;20084;-88
2021/10/29 11:31:19;;;;;;;5.50;3.65;;;21.20;72.00;;;;;;6236400;28;20136;-89
2021/10/29 11:34:20;;;;;;;6.63;3.50;;;21.20;71.40;;;;;;6235484;28;20083;-86
2021/10/29 11:37:21;;;;;;;4.20;3.10;;;21.00;89.10;;;;;;6239657;28;20135;-90
2021/10/29 11:40:22;;;;;;;4.97;3.35;;;21.00;74.20;;;;;;6237436;28;20227;-88
2021/10/29 11:43:24;;;;;;;2.90;2.60;;;20.80;73.80;;;;;;6264152;28;20474;-86
2021/10/29 11:46:25;;;;;;;5.28;2.97;;;21.00;87.30;;;;;;6262020;28;20044;-86
2021/10/29 11:49:28;;;;;;;3.72;2.92;;;20.90;71.90;;;;;;6261972;28;20493;-85
2021/10/29 11:52:29;;;;;;;3.40;3.10;;;20.90;73.20;;;;;;6281558;28;20024;-89
2021/10/29 11:55:51;;;;;;;3.53;3.13;;;21.00;71.10;;;;;;6269115;28;20068;-88
2021/10/29 12:08:54;;;;;;;3.33;2.75;;;21.30;71.30;;;;;;6310061;28;20036;-91
2021/10/29 12:12:04;;;;;;;4.03;2.80;;;21.40;72.20;;;;;;6267236;28;20630;-87
2021/10/29 12:15:16;;;;;;;5.57;3.33;;;21.40;88.00;;;;;;6256462;28;20037;-86
2021/10/29 12:18:16;;;;;;;5.75;3.13;;;21.30;71.00;;;;;;6252805;28;20044;-91
2021/10/29 12:21:21;;;;;;;5.07;2.95;;;21.10;85.50;;;;;;6276254;28;20028;-85
2021/10/29 12:24:22;;;;;;;6.20;3.30;;;21.20;69.90;;;;;;6263694;28;20043;-89
2021/10/29 12:27:28;;;;;;;7.47;3.30;;;;;;;;;;6272273;28;20028;-87
2021/10/29 12:53:55;;;;;;;3.47;2.78;;;20.90;78.10;;;;;;6278343;28;20378;-80
2021/10/29 13:04:01;;;;;;;6.03;3.35;;;20.80;88.50;;;;;;6270414;28;20055;-82
2021/10/29 13:07:02;;;;;;;4.05;3.03;;;20.90;90.00;;;;;;6246639;28;20390;-84
2021/10/29 13:10:07;;;;;;;3.47;2.60;;;20.70;79.60;;;;;;6274867;28;20067;-83
2021/10/29 13:13:15;;;;;;;4.05;2.58;;;;;;;;;;6258759;28;20028;-82
2021/10/29 13:16:18;;;;;;;3.30;2.25;;;;;;;;;;6291615;28;20071;-80
2021/10/29 13:28:59;;;;;;;3.65;2.60;;;;;;;;;;6290196;28;20107;-81
2021/10/29 13:35:28;;;;;;;4.82;3.10;;;20.50;70.30;;;;;;6297790;28;20024;-85
2021/10/29 13:51:50;;;;;;;4.28;2.72;;;20.20;64.70;;;;;;6283321;28;20466;-80
2021/10/29 14:24:31;;;;;;;4.30;3.45;;;19.10;71.40;;;;;;6315206;28;20028;-79
2021/10/29 14:30:55;;;;;;;7.28;3.10;;;19.00;73.80;;;;;;6300536;28;20028;-79
2021/10/29 14:34:10;;;;;;;11.57;4.00;;;18.90;74.10;;;;;;6303068;28;20116;-80
2021/10/29 14:40:17;;;;;;;4.75;3.15;;;18.60;74.90;;;;;;6295623;28;20059;-80
2021/10/29 14:43:25;;;;;;;3.50;3.17;;;18.50;74.40;;;;;;6279376;28;20107;-79
2021/10/29 14:46:38;;;;;;;4.78;3.20;;;18.40;74.00;;;;;;6279713;28;20039;-82
2021/10/29 15:06:00;;;;;;;7.07;3.30;;;17.70;82.20;;;;;;6267223;28;20067;-82
2021/10/29 15:16:07;;;;;;;4.97;3.10;;;17.20;92.60;;;;;;6294617;28;20032;-83
2021/10/29 15:28:49;;;;;;;4.57;3.00;;;16.50;82.10;;;;;;6269188;28;20504;-84
2021/10/29 15:44:23;;;;;;;5.55;4.32;;;15.10;97.10;;;;;;6266248;28;20036;-82
2021/10/29 15:47:43;;;;;;;6.28;4.18;;;15.10;89.20;;;;;;6268351;28;20031;-83
2021/10/29 15:50:44;;;;;;;6.28;4.60;;;15.00;89.20;;;;;;6300241;28;20063;-84
2021/10/29 15:53:45;;;;;;;8.48;5.15;;;14.70;91.40;;;;;;6267172;28;20033;-85
2021/10/29 15:56:52;;;;;;;7.43;5.55;;;14.50;91.80;;;;;;6267317;28;20060;-84
2021/10/29 16:00:09;;;;;;;9.10;3.97;;;14.30;91.70;;;;;;6275926;28;20036;-87
2021/10/29 16:03:16;;;;;;;5.82;3.90;;;14.30;99.90;;;;;;6271883;28;20138;-84
2021/10/29 16:19:34;;;;;;;6.43;4.07;;;12.90;99.90;;;;;;6305684;28;20029;-86
2021/10/29 16:22:36;;;;;;;5.60;4.55;;;12.90;99.90;;;;;;6244555;28;20028;-80
2021/10/29 16:25:39;;;;;;;5.50;4.18;;;12.90;98.90;;;;;;6268062;28;20078;-82
2021/10/29 16:28:41;;;;;;;6.43;4.28;;;12.80;99.90;;;;;;6306985;28;20378;-84
2021/10/29 16:31:45;;;;;;;9.88;4.78;;;12.50;99.90;;;;;;6275764;28;20024;-84
2021/10/29 16:34:45;;;;;;;6.85;4.55;;;12.60;99.90;;;;;;6260436;28;20044;-82
2021/10/29 16:37:46;;;;;;;7.38;4.32;;;12.30;99.90;;;;;;6281129;28;20370;-82
2021/10/29 16:40:47;;;;;;;6.78;4.43;;;12.70;99.90;;;;;;6279967;28;20033;-81
2021/10/29 16:43:48;;;;;;;8.48;4.68;;;12.10;99.90;;;;;;6275128;28;20364;-82
2021/10/29 16:46:48;;;;;;;9.85;4.70;;;12.20;99.90;;;;;;6275054;28;20470;-81
2021/10/29 16:49:49;;;;;;;6.30;3.80;;;12.30;99.90;;;;;;6309627;28;20028;-83
2021/10/29 16:52:50;;;;;;;5.32;4.00;;;12.30;99.90;;;;;;6307735;28;20055;-83
2021/10/29 16:55:51;;;;;;;6.32;4.10;;;12.20;99.90;;;;;;6292172;28;20479;-82
2021/10/29 16:58:51;;;;;;;7.82;4.47;;;12.30;99.90;;;;;;6274944;28;20036;-79
2021/10/29 17:01:52;;;;;;;7.38;4.60;;;12.20;99.90;;;;;;6293920;28;20056;-80
2021/10/29 17:04:53;;;;;;;8.45;5.05;;;12.50;99.90;;;;;;6316626;28;20043;-81
2021/10/29 17:07:53;;;;;;;11.90;6.00;;;11.80;99.90;;;;;;6317822;28;20500;-82
2021/10/29 17:10:54;;;;;;;7.60;5.75;;;11.80;99.90;;;;;;6295700;28;20470;-80
2021/10/29 17:13:55;;;;;;;7.40;5.93;;;11.50;99.90;;;;;;6275197;28;20036;-80
2021/10/29 17:16:55;;;;;;;11.45;5.80;;;11.50;99.90;;;;;;6274677;28;20040;-82
2021/10/29 17:19:56;;;;;;;8.27;6.05;;;11.50;99.90;;;;;;6278053;28;20471;-81
2021/10/29 17:22:56;;;;;;;9.52;7.32;;;11.40;99.90;;;;;;6291409;28;20526;-83
2021/10/29 17:25:58;;;;;;;11.27;6.50;;;11.40;99.90;;;;;;6273897;28;20074;-81
2021/10/29 17:28:59;;;;;;;11.07;7.05;;;11.10;99.90;;;;;;6293304;28;20029;-80
2021/10/29 17:32:01;;;;;;;12.07;7.22;;;11.00;99.90;;;;;;6275315;28;20021;-80
2021/10/29 17:35:01;;;;;;;13.23;8.63;;;11.10;99.90;;;;;;6264963;28;20031;-82
2021/10/29 17:38:02;;;;;;;12.13;8.15;;;10.70;99.90;;;;;;6277417;28;20290;-82
2021/10/29 17:41:04;;;;;;;12.13;8.40;;;10.80;99.90;;;;;;6316528;28;20036;-81
2021/10/29 17:44:05;;;;;;;16.60;9.23;;;10.70;99.90;;;;;;6276569;28;20029;-81
2021/10/29 17:47:06;;;;;;;14.40;7.53;;;11.10;99.90;;;;;;6289815;28;20031;-82
2021/10/29 17:50:07;;;;;;;10.40;6.68;;;10.90;99.90;;;;;;6274737;28;20021;-82
2021/10/29 17:53:08;;;;;;;9.27;6.07;;;;;;;;;;6267495;28;20067;-82
2021/10/29 17:56:09;;;;;;;11.50;6.47;;;10.50;99.90;;;;;;6299305;28;20101;-82
2021/10/29 17:59:10;;;;;;;10.15;6.32;;;10.80;99.90;;;;;;6291302;28;20040;-81
2021/10/29 18:02:12;;;;;;;8.77;5.90;;;10.70;99.90;;;;;;6258059;28;20033;-82
2021/10/29 18:05:16;;;;;;;8.77;5.60;;;;;;;;;;6303683;28;20032;-82
2021/10/29 18:08:23;;;;;;;8.75;5.53;;;10.30;99.90;;;;;;6317468;28;20035;-82
2021/10/29 18:11:25;;;;;;;7.03;5.55;;;10.70;99.90;;;;;;6297566;28;20060;-86
2021/10/29 18:14:27;;;;;;;;;;;10.50;99.90;;;;;;6264481;28;20036;-86
2021/10/29 18:17:28;;;;;;;10.93;5.63;;;10.80;99.90;;;;;;6281515;28;20262;-85
2021/10/29 18:20:30;;;;;;;8.27;5.82;;;;;;;;;;6284096;28;20024;-85
2021/10/29 18:23:30;;;;;;;9.23;6.45;;;10.30;99.90;;;;;;6282427;28;20028;-87
2021/10/29 18:26:31;;;;;;;7.82;5.82;;;;;;;;;;6290541;28;20040;-83
2021/10/29 18:29:33;;;;;;;9.27;5.85;;;10.40;99.90;;;;;;6280543;28;20028;-84
2021/10/29 18:32:33;;;;;;;12.80;5.88;;;10.20;99.90;;;;;;6303339;28;20035;-84
2021/10/29 18:35:34;;;;;;;7.53;5.05;;;;;;;;;;6299137;28;20032;-81
2021/10/29 18:38:35;;;;;;;40.92;25.10;;;10.20;99.90;;;;;;6321616;28;20036;-80
2021/10/29 18:41:36;;;;;;;8.90;6.60;;;9.90;99.90;;;;;;6280524;28;20040;-85
2021/10/29 18:44:37;;;;;;;7.95;6.03;;;10.00;99.90;;;;;;6265258;28;20463;-87
2021/10/29 18:47:38;;;;;;;11.05;6.95;;;;;;;;;;6268160;28;20099;-84
2021/10/29 18:50:39;;;;;;;10.52;6.97;;;10.00;99.90;;;;;;6286857;28;20462;-84
2021/10/29 18:53:40;;;;;;;9.18;5.93;;;;;;;;;;6266608;28;20038;-84
2021/10/29 18:56:41;;;;;;;12.70;6.47;;;;;;;;;;6285648;28;20051;-85
2021/10/29 18:59:42;;;;;;;10.90;7.03;;;10.30;99.90;;;;;;6267376;28;20061;-84
2021/10/29 19:02:43;;;;;;;30.23;18.63;;;;;;;;;;6270048;28;20523;-86
2021/10/29 19:05:44;;;;;;;16.90;10.38;;;;;;;;;;6287244;28;20066;-83
2021/10/29 19:08:44;;;;;;;8.88;7.18;;;9.90;99.90;;;;;;6268932;28;20027;-86
2021/10/29 19:11:45;;;;;;;10.00;6.50;;;;;;;;;;6268739;28;20378;-84
2021/10/29 19:14:46;;;;;;;8.70;6.65;;;;;;;;;;6298636;28;20060;-83
2021/10/29 19:17:47;;;;;;;13.60;6.30;;;9.80;99.90;;;;;;6301861;28;20050;-83
2021/10/29 19:20:48;;;;;;;14.90;7.78;;;;;;;;;;6274046;28;20029;-84
2021/10/29 19:23:49;;;;;;;10.27;6.18;;;;;;;;;;6284346;28;20024;-88
2021/10/29 19:26:50;;;;;;;14.38;7.68;;;10.40;99.90;;;;;;6269014;28;20486;-87
2021/10/29 19:29:51;;;;;;;10.00;6.65;;;10.10;99.90;;;;;;6281281;28;20028;-87
2021/10/29 19:32:53;;;;;;;13.02;6.55;;;;;;;;;;6260586;28;20062;-86
2021/10/29 19:36:04;;;;;;;12.55;6.90;;;10.10;99.90;;;;;;6268628;28;20025;-87
2021/10/29 19:39:12;;;;;;;9.00;6.70;;;9.90;99.90;;;;;;6255628;28;20048;-88
2021/10/29 19:42:12;;;;;;;11.13;6.47;;;9.80;99.90;;;;;;6262776;28;20078;-87
2021/10/29 19:45:13;;;;;;;8.70;6.18;;;9.70;99.90;;;;;;6269223;28;20077;-88
2021/10/29 19:48:14;;;;;;;13.00;9.30;;;;;;;;;;6261616;28;20078;-86
2021/10/29 19:51:15;;;;;;;10.43;6.40;;;9.90;99.90;;;;;;6286055;28;20462;-87
2021/10/29 19:54:18;;;;;;;13.23;8.65;;;;;;;;;;6261285;28;20109;-88
2021/10/29 19:57:23;;;;;;;16.77;13.27;;;9.40;99.90;;;;;;6269395;28;20089;-85
2021/10/29 20:00:24;;;;;;;13.23;10.20;;;9.60;99.90;;;;;;6252950;28;20107;-87
2021/10/29 20:03:25;;;;;;;13.43;8.82;;;;;;;;;;6265924;28;20032;-84
2021/10/29 20:06:25;;;;;;;7.10;6.40;;;9.10;99.90;;;;;;6268154;28;20028;-85
2021/10/29 20:09:26;;;;;;;9.88;8.02;;;;;;;;;;6260064;28;20036;-86
2021/10/29 20:12:27;;;;;;;9.82;7.47;;;9.20;99.90;;;;;;6264844;28;20042;-86
2021/10/29 20:15:28;;;;;;;9.48;6.25;;;;;;;;;;6294625;28;20069;-87
2021/10/29 20:18:29;;;;;;;9.32;5.90;;;9.30;99.90;;;;;;6284115;28;20032;-86
2021/10/29 20:21:30;;;;;;;8.00;5.72;;;9.40;99.90;;;;;;6262870;28;20070;-87
2021/10/29 20:24:30;;;;;;;6.75;4.93;;;9.40;99.90;;;;;;6268517;28;20524;-86
2021/10/29 20:27:32;;;;;;;13.23;6.30;;;;;;;;;;6261918;28;20078;-87
2021/10/29 20:30:33;;;;;;;10.88;6.30;;;9.40;99.90;;;;;;6266714;28;20024;-85
2021/10/29 20:33:33;;;;;;;10.00;5.65;;;9.10;99.90;;;;;;6258760;28;20029;-87
2021/10/29 20:36:34;;;;;;;9.07;6.10;;;;;;;;;;6262002;28;20043;-87
2021/10/29 20:39:35;;;;;;;9.50;6.70;;;9.10;99.90;;;;;;6279984;28;20024;-86
2021/10/29 20:42:36;;;;;;;12.65;8.18;;;9.30;99.90;;;;;;6260004;28;20071;-85
2021/10/29 20:45:37;;;;;;;10.95;6.60;;;;;;;;;;6261437;28;20028;-85
2021/10/29 20:48:38;;;;;;;8.15;6.10;;;;;;;;;;6268729;28;20026;-86
2021/10/29 20:51:39;;;;;;;9.13;6.63;;;9.30;99.90;;;;;;6260548;28;20033;-84
2021/10/29 20:54:40;;;;;;;9.32;7.13;;;8.40;99.90;;;;;;6260977;28;20050;-83
2021/10/29 20:57:41;;;;;;;12.05;7.53;;;8.70;99.90;;;;;;6258186;28;20066;-85
2021/10/29 21:00:41;;;;;;;10.18;7.32;;;8.80;99.90;;;;;;6261410;28;20025;-83
2021/10/29 21:03:42;;;;;;;12.15;7.35;;;;;;;;;;6286387;28;20025;-83
2021/10/29 21:06:43;;;;;;;9.15;7.07;;;8.30;99.90;;;;;;6279395;28;20367;-83
2021/10/29 21:09:50;;;;;;;15.88;7.32;;;8.00;99.90;;;;;;6260587;28;20029;-83